Marsing, Idaho
Current Conditions -  °F | °C
As of 1:15 AM on Tuesday 21 Oct 2014 (Local Time) from KEUL Reporting Station
Broken Clouds Broken Clouds  
Wind Chill: 57°   Ceiling: 9000
Heat Index: 57°   Visibility: 10mi
Dew Point: 39°   Wind: 17mph
Humidity: 51%   Direction: 310°NW
Pressure: 29.84"   Gusts: NA
Location:  43.55°N, 116.81°W
Report Text: KEUL 210715Z AUTO 31015KT 10SM BKN090 14/04 A2984 RMK AO1
Loading
Personal Weather Stations






























Interactive Weather Map
Tropical Storm Tracking
New forecast layout! Learn more

10-Day Weather Forecast

Advertisements
Track Severe Weather on mobile